createdAt,value
2022-11-17T00:00:33.548Z,98938.50
2022-11-17T00:03:00.061Z,98933.41
2022-11-17T00:05:26.907Z,98939.50
2022-11-17T00:07:53.503Z,98939.38
2022-11-17T00:10:20.166Z,98945.41
2022-11-17T00:13:05.366Z,98936.75
2022-11-17T00:15:32.125Z,98906.63
2022-11-17T00:18:19.183Z,98920.28
2022-11-17T00:21:04.465Z,98923.03
2022-11-17T00:23:50.077Z,98922.88
2022-11-17T00:26:21.335Z,98914.53
2022-11-17T00:28:51.887Z,98906.00
2022-11-17T00:31:37.170Z,98910.22
2022-11-17T00:34:06.631Z,98896.38
2022-11-17T00:36:42.225Z,98892.00
2022-11-17T00:39:10.260Z,98842.03
2022-11-17T00:41:37.103Z,98880.81
2022-11-17T00:44:03.854Z,98882.63
2022-11-17T00:46:31.313Z,98851.47
2022-11-17T00:48:58.070Z,98872.16
2022-11-17T00:51:27.980Z,98859.16
2022-11-17T00:53:54.729Z,98857.56
2022-11-17T00:56:21.585Z,98852.31
2022-11-17T00:58:48.137Z,98850.53
2022-11-17T01:01:15.093Z,98854.13
2022-11-17T01:03:41.731Z,98841.94
2022-11-17T01:06:16.864Z,98813.78
2022-11-17T01:08:44.228Z,98838.81
2022-11-17T01:11:16.996Z,98845.56
2022-11-17T01:13:45.026Z,98838.72
2022-11-17T01:16:15.394Z,98837.88
2022-11-17T01:18:43.521Z,98824.22
2022-11-17T01:21:30.264Z,98801.72
2022-11-17T01:23:58.926Z,98822.41
2022-11-17T01:26:28.316Z,98830.06
2022-11-17T01:28:55.436Z,98826.59
2022-11-17T01:31:28.564Z,98805.69
2022-11-17T01:33:55.539Z,98809.38
2022-11-17T01:36:26.478Z,98799.03
2022-11-17T01:38:53.443Z,98806.63
2022-11-17T01:41:28.038Z,98792.06
2022-11-17T01:43:59.345Z,98796.28
2022-11-17T01:46:46.228Z,98785.78
2022-11-17T01:49:17.994Z,98769.63
2022-11-17T01:51:56.814Z,98763.56
2022-11-17T01:54:27.540Z,98762.97
2022-11-17T01:56:58.686Z,98761.97
2022-11-17T01:59:33.928Z,98754.06
2022-11-17T02:02:00.660Z,98748.16
2022-11-17T02:04:39.118Z,98752.47
2022-11-17T02:07:14.309Z,98744.53
2022-11-17T02:09:41.514Z,98736.00
2022-11-17T02:12:11.943Z,98741.38
2022-11-17T02:14:40.362Z,98702.75
2022-11-17T02:17:13.919Z,98733.91
2022-11-17T02:19:45.910Z,98690.66
2022-11-17T02:22:54.238Z,98721.53
2022-11-17T02:25:53.322Z,98711.22
2022-11-17T02:28:36.464Z,98700.16
2022-11-17T02:31:09.294Z,98701.81
2022-11-17T02:33:52.006Z,98696.44
2022-11-17T02:36:52.413Z,98695.00
2022-11-17T02:39:24.892Z,98694.97
2022-11-17T02:41:54.643Z,98698.28
2022-11-17T02:45:12.066Z,98704.22
2022-11-17T02:47:46.292Z,98698.44
2022-11-17T02:50:14.353Z,98682.78
2022-11-17T02:52:41.653Z,98677.72
2022-11-17T02:55:11.575Z,98668.22
2022-11-17T02:57:40.886Z,98676.81
2022-11-17T03:00:08.233Z,98675.91
2022-11-17T03:02:38.384Z,98667.31
2022-11-17T03:05:12.981Z,98664.75
2022-11-17T03:07:55.338Z,98647.59
2022-11-17T03:10:58.398Z,98650.19
2022-11-17T03:13:25.521Z,98651.13
2022-11-17T03:16:04.725Z,98640.72
2022-11-17T03:18:46.718Z,98643.34
2022-11-17T03:21:28.972Z,98640.47
2022-11-17T03:24:27.221Z,98647.44
2022-11-17T03:27:00.403Z,98636.38
2022-11-17T03:29:31.463Z,98633.50
2022-11-17T03:32:03.173Z,98606.94
2022-11-17T03:34:35.920Z,98643.19
2022-11-17T03:37:06.266Z,98615.59
2022-11-17T03:39:36.219Z,98634.53
2022-11-17T03:42:14.552Z,98636.22
2022-11-17T03:44:46.713Z,98630.00
2022-11-17T03:47:15.455Z,98607.84
2022-11-17T03:50:09.074Z,98625.16
2022-11-17T03:52:37.958Z,98578.66
2022-11-17T03:55:06.124Z,98574.22
2022-11-17T03:57:32.710Z,98613.56
2022-11-17T04:00:04.186Z,98607.06
2022-11-17T04:02:45.747Z,98619.56
2022-11-17T04:05:14.233Z,98590.66
2022-11-17T04:07:43.469Z,98600.69
2022-11-17T04:10:11.702Z,98605.00
2022-11-17T04:12:56.962Z,98594.03
2022-11-17T04:15:42.343Z,98597.19
2022-11-17T04:18:09.077Z,98613.06
2022-11-17T04:20:38.197Z,98571.63
2022-11-17T04:23:07.511Z,98571.59
2022-11-17T04:25:57.745Z,98544.09
2022-11-17T04:28:37.894Z,98550.03
2022-11-17T04:31:11.724Z,98581.06
2022-11-17T04:33:46.971Z,98545.00
2022-11-17T04:36:16.043Z,98541.78
2022-11-17T04:38:44.336Z,98541.53
2022-11-17T04:41:31.654Z,98522.47
2022-11-17T04:43:58.347Z,98521.66
2022-11-17T04:46:35.840Z,98521.63
2022-11-17T04:49:03.363Z,98488.44
2022-11-17T04:51:30.942Z,98495.91
2022-11-17T04:53:58.219Z,98507.19
2022-11-17T04:56:26.140Z,98505.41
2022-11-17T04:58:53.117Z,98500.25
2022-11-17T05:01:21.126Z,98499.38
2022-11-17T05:04:00.022Z,98500.25
2022-11-17T05:06:40.730Z,98493.50
2022-11-17T05:09:11.393Z,98487.31
2022-11-17T05:11:56.859Z,98491.66
2022-11-17T05:14:25.685Z,98487.09
2022-11-17T05:17:11.915Z,98484.66
2022-11-17T05:19:40.199Z,98479.50
2022-11-17T05:22:28.197Z,98475.38
2022-11-17T05:24:55.681Z,98459.69
2022-11-17T05:27:23.231Z,98465.91
2022-11-17T05:29:50.415Z,98465.91
2022-11-17T05:32:18.049Z,98450.38
2022-11-17T05:34:44.695Z,98456.50
2022-11-17T05:37:11.618Z,98451.50
2022-11-17T05:39:39.074Z,98462.59
2022-11-17T05:42:05.713Z,98448.81
2022-11-17T05:44:32.383Z,98447.13
2022-11-17T05:46:59.104Z,98456.38
2022-11-17T05:49:25.766Z,98440.84
2022-11-17T05:51:53.611Z,98439.09
2022-11-17T05:54:20.705Z,98458.03
2022-11-17T05:56:52.516Z,98435.91
2022-11-17T05:59:27.523Z,98434.03
2022-11-17T06:02:05.067Z,98429.06
2022-11-17T06:04:32.748Z,98453.72
2022-11-17T06:07:01.441Z,98452.25
2022-11-17T06:09:33.846Z,98459.81
2022-11-17T06:12:05.912Z,98451.75
2022-11-17T06:14:34.787Z,98444.16
2022-11-17T06:17:09.325Z,98447.72
2022-11-17T06:19:42.862Z,98440.63
2022-11-17T06:22:13.048Z,98440.75
2022-11-17T06:24:43.496Z,98453.75
2022-11-17T06:27:12.007Z,98429.31
2022-11-17T06:29:43.912Z,98423.22
2022-11-17T06:32:14.384Z,98437.84
2022-11-17T06:34:42.904Z,98436.19
2022-11-17T06:37:11.229Z,98420.97
2022-11-17T06:39:37.969Z,98415.72
2022-11-17T06:42:04.771Z,98431.91
2022-11-17T06:44:31.412Z,98410.31
2022-11-17T06:46:58.092Z,98425.50
2022-11-17T06:49:25.010Z,98420.59
2022-11-17T06:51:52.177Z,98431.19
2022-11-17T06:54:18.750Z,98419.72
2022-11-17T06:56:45.526Z,98428.13
2022-11-17T06:59:12.108Z,98424.75
2022-11-17T07:01:38.802Z,98428.31
2022-11-17T07:04:05.424Z,98427.31
2022-11-17T07:06:32.579Z,98417.66
2022-11-17T07:08:59.124Z,98424.78
2022-11-17T07:11:25.723Z,98430.66
2022-11-17T07:13:52.296Z,98429.81
2022-11-17T07:16:24.085Z,98427.94
2022-11-17T07:18:52.690Z,98425.06
2022-11-17T07:21:19.365Z,98424.97
2022-11-17T07:23:46.993Z,98433.94
2022-11-17T07:26:14.171Z,98421.84
2022-11-17T07:28:40.807Z,98412.31
2022-11-17T07:31:08.975Z,98408.25
2022-11-17T07:33:36.316Z,98414.88
2022-11-17T07:36:09.591Z,98417.41
2022-11-17T07:38:38.509Z,98410.38
2022-11-17T07:41:06.695Z,98413.13
2022-11-17T07:43:34.573Z,98405.66
2022-11-17T07:46:10.312Z,98414.13
2022-11-17T07:48:37.299Z,98402.78
2022-11-17T07:51:05.836Z,98407.88
2022-11-17T07:53:35.323Z,98407.88
2022-11-17T07:56:06.840Z,98403.78
2022-11-17T07:58:34.041Z,98397.72
2022-11-17T08:01:05.501Z,98414.66
2022-11-17T08:03:32.365Z,98391.47
2022-11-17T08:06:06.178Z,98411.47
2022-11-17T08:08:33.955Z,98384.13
2022-11-17T08:11:09.045Z,98418.97
2022-11-17T08:13:36.423Z,98418.47
2022-11-17T08:16:03.213Z,98419.22
2022-11-17T08:18:30.001Z,98417.25
2022-11-17T08:21:08.666Z,98424.06
2022-11-17T08:23:35.559Z,98419.88
2022-11-17T08:26:02.547Z,98424.94
2022-11-17T08:28:29.717Z,98430.22
2022-11-17T08:30:56.400Z,98413.63
2022-11-17T08:33:22.999Z,98426.81
2022-11-17T08:35:49.544Z,98430.06
2022-11-17T08:38:16.101Z,98420.81
2022-11-17T08:40:42.690Z,98427.78
2022-11-17T08:43:09.342Z,98426.94
2022-11-17T08:45:35.961Z,98408.88
2022-11-17T08:48:03.965Z,98426.94
2022-11-17T08:50:30.673Z,98425.81
2022-11-17T08:52:57.433Z,98428.41
2022-11-17T08:55:26.272Z,98439.75
2022-11-17T08:57:53.153Z,98424.16
2022-11-17T09:00:21.694Z,98425.16
2022-11-17T09:02:48.327Z,98426.97
2022-11-17T09:05:27.058Z,98430.41
2022-11-17T09:08:44.333Z,98398.06
2022-11-17T09:11:30.273Z,98384.75
2022-11-17T09:14:05.377Z,98429.66
2022-11-17T09:16:49.019Z,98446.19
2022-11-17T09:20:23.438Z,98439.09
2022-11-17T09:23:35.003Z,98444.09
2022-11-17T09:27:11.677Z,98448.19
2022-11-17T09:30:03.418Z,98414.53
2022-11-17T09:32:52.466Z,98455.72
2022-11-17T09:42:30.580Z,98439.09
2022-11-17T09:45:34.370Z,98420.50
2022-11-17T09:52:03.920Z,98411.56
2022-11-17T09:55:06.189Z,98461.06
2022-11-17T09:58:20.455Z,98464.59
2022-11-17T10:05:41.406Z,98356.78
2022-11-17T10:08:32.078Z,98463.09
2022-11-17T10:11:22.713Z,98437.16
2022-11-17T10:13:50.720Z,98459.09
2022-11-17T10:16:24.766Z,98467.38
2022-11-17T10:19:14.182Z,98438.47
2022-11-17T10:22:38.913Z,98465.88
2022-11-17T10:28:37.307Z,98484.06
2022-11-17T10:31:26.754Z,98459.06
2022-11-17T10:34:12.357Z,98456.66
2022-11-17T10:40:35.552Z,98495.50
2022-11-17T10:43:19.450Z,98497.88
2022-11-17T10:45:51.862Z,98503.50
2022-11-17T10:48:39.456Z,98500.78
2022-11-17T10:51:37.867Z,98502.00
2022-11-17T10:54:21.851Z,98510.69
2022-11-17T10:57:01.871Z,98509.06
2022-11-17T10:59:50.721Z,98512.91
2022-11-17T11:02:49.373Z,98505.75
2022-11-17T11:05:28.133Z,98511.06
2022-11-17T11:08:29.464Z,98466.56
2022-11-17T11:11:08.039Z,98518.47
2022-11-17T11:14:15.246Z,98500.44
2022-11-17T11:17:06.088Z,98503.50
2022-11-17T11:19:55.035Z,98454.91
2022-11-17T11:26:11.191Z,98470.91
2022-11-17T11:29:13.578Z,98417.16
2022-11-17T11:32:16.008Z,98502.69
2022-11-17T11:34:57.448Z,98490.75
2022-11-17T11:38:05.141Z,98503.53
2022-11-17T11:41:04.549Z,98499.88
2022-11-17T11:43:49.698Z,98501.78
2022-11-17T11:50:04.462Z,98509.28
2022-11-17T11:55:42.828Z,98422.03
2022-11-17T11:58:55.076Z,98512.59
2022-11-17T12:02:20.380Z,98508.84
2022-11-17T12:05:31.574Z,98487.91
2022-11-17T12:08:42.512Z,98520.91
2022-11-17T12:11:35.401Z,98493.78
2022-11-17T12:15:29.439Z,98487.75
2022-11-17T12:17:43.323Z,98524.28
2022-11-17T12:20:57.223Z,98526.69
2022-11-17T12:34:14.193Z,98530.72
2022-11-17T12:37:28.582Z,98517.19
2022-11-17T12:40:13.171Z,98495.63
2022-11-17T12:43:31.250Z,98536.25
2022-11-17T12:49:33.496Z,98542.97
2022-11-17T12:52:38.747Z,98544.91
2022-11-17T12:55:36.085Z,98519.53
2022-11-17T13:02:21.355Z,98493.38
2022-11-17T13:05:32.958Z,98525.28
2022-11-17T13:08:18.183Z,98553.41
2022-11-17T13:11:24.883Z,98521.47
2022-11-17T13:14:36.565Z,98542.47
2022-11-17T13:17:16.354Z,98491.28
2022-11-17T13:20:40.000Z,98511.72
2022-11-17T13:23:14.953Z,98562.78
2022-11-17T13:25:42.247Z,98564.34
2022-11-17T13:28:31.209Z,98563.72
2022-11-17T13:30:59.887Z,98568.53
2022-11-17T13:33:28.087Z,98575.19
2022-11-17T13:36:20.102Z,98576.59
2022-11-17T13:38:52.079Z,98559.66
2022-11-17T13:41:21.829Z,98561.00
2022-11-17T13:43:50.755Z,98562.63
2022-11-17T13:46:18.129Z,98563.00
2022-11-17T13:48:47.010Z,98562.16
2022-11-17T13:51:20.454Z,98566.19
2022-11-17T13:54:01.269Z,98560.94
2022-11-17T13:56:59.102Z,98568.63
2022-11-17T13:59:31.189Z,98565.56
2022-11-17T14:06:22.914Z,98532.81
2022-11-17T14:12:38.625Z,98535.72
2022-11-17T14:23:03.954Z,98572.81
2022-11-17T14:25:39.306Z,98583.81
2022-11-17T14:28:13.519Z,98578.50
2022-11-17T14:30:40.122Z,98581.44
2022-11-17T14:33:12.129Z,98572.78
2022-11-17T14:35:40.317Z,98581.25
2022-11-17T14:38:10.455Z,98576.41
2022-11-17T14:40:37.037Z,98584.72
2022-11-17T14:43:03.753Z,98582.69
2022-11-17T14:45:30.712Z,98604.00
2022-11-17T14:47:57.298Z,98579.72
2022-11-17T14:50:23.963Z,98586.16
2022-11-17T14:52:50.510Z,98585.25
2022-11-17T14:55:17.103Z,98613.31
2022-11-17T14:57:43.750Z,98617.97
2022-11-17T15:00:15.821Z,98595.63
2022-11-17T15:02:46.249Z,98613.66
2022-11-17T15:05:13.232Z,98613.69
2022-11-17T15:07:39.918Z,98608.69
2022-11-17T15:10:08.071Z,98618.81
2022-11-17T15:12:35.059Z,98611.50
2022-11-17T15:15:01.666Z,98617.00
2022-11-17T15:17:28.309Z,98630.75
2022-11-17T15:19:55.315Z,98625.75
2022-11-17T15:22:22.318Z,98621.47
2022-11-17T15:24:48.877Z,98635.91
2022-11-17T15:27:16.206Z,98637.31
2022-11-17T15:29:43.013Z,98630.31
2022-11-17T15:32:10.599Z,98635.53
2022-11-17T15:34:37.490Z,98646.91
2022-11-17T15:37:04.412Z,98642.03
2022-11-17T15:39:31.710Z,98633.44
2022-11-17T15:41:58.363Z,98653.38
2022-11-17T15:44:25.162Z,98647.25
2022-11-17T15:46:52.066Z,98645.28
2022-11-17T15:49:19.146Z,98645.28
2022-11-17T15:51:46.246Z,98657.34
2022-11-17T15:54:19.650Z,98655.00
2022-11-17T15:56:47.943Z,98662.78
2022-11-17T15:59:15.136Z,98661.22
2022-11-17T16:01:42.173Z,98659.16
2022-11-17T16:04:15.438Z,98666.63
2022-11-17T16:06:43.578Z,98674.56
2022-11-17T16:09:11.954Z,98672.66
2022-11-17T16:11:39.627Z,98658.03
2022-11-17T16:14:06.961Z,98675.59
2022-11-17T16:16:36.611Z,98674.25
2022-11-17T16:19:04.149Z,98673.31
2022-11-17T16:21:31.030Z,98677.75
2022-11-17T16:24:00.439Z,98683.69
2022-11-17T16:26:28.606Z,98689.44
2022-11-17T16:28:59.706Z,98678.38
2022-11-17T16:31:32.152Z,98685.47
2022-11-17T16:34:01.096Z,98684.34
2022-11-17T16:36:35.833Z,98688.78
2022-11-17T16:39:06.198Z,98692.22
2022-11-17T16:41:35.830Z,98689.03
2022-11-17T16:44:03.344Z,98692.66
2022-11-17T16:46:31.686Z,98686.03
2022-11-17T16:49:04.022Z,98685.75
2022-11-17T16:51:31.031Z,98690.03
2022-11-17T16:54:03.320Z,98686.06
2022-11-17T16:56:30.492Z,98686.63
2022-11-17T16:58:58.741Z,98692.94
2022-11-17T17:01:27.336Z,98674.72
2022-11-17T17:04:01.901Z,98696.19
2022-11-17T17:06:28.971Z,98678.47
2022-11-17T17:09:06.703Z,98686.09
2022-11-17T17:11:35.768Z,98698.13
2022-11-17T17:14:05.139Z,98695.81
2022-11-17T17:16:36.011Z,98698.63
2022-11-17T17:19:05.073Z,98691.09
2022-11-17T17:21:32.849Z,98702.94
2022-11-17T17:23:59.653Z,98694.84
2022-11-17T17:26:28.800Z,98710.84
2022-11-17T17:28:58.092Z,98700.13
2022-11-17T17:31:26.622Z,98710.50
2022-11-17T17:33:55.172Z,98705.34
2022-11-17T17:36:24.853Z,98708.19
2022-11-17T17:38:55.858Z,98720.50
2022-11-17T17:41:25.400Z,98721.34
2022-11-17T17:44:00.831Z,98729.16
2022-11-17T17:46:29.969Z,98727.03
2022-11-17T17:48:57.519Z,98734.50
2022-11-17T17:51:26.896Z,98731.22
2022-11-17T17:53:55.843Z,98730.09
2022-11-17T17:56:22.560Z,98730.38
2022-11-17T17:58:50.849Z,98729.72
2022-11-17T18:01:21.030Z,98734.91
2022-11-17T18:03:49.657Z,98740.94
2022-11-17T18:06:19.804Z,98744.72
2022-11-17T18:08:47.267Z,98747.22
2022-11-17T18:11:18.277Z,98751.72
2022-11-17T18:13:48.389Z,98750.50
2022-11-17T18:16:24.605Z,98749.59
2022-11-17T18:18:57.226Z,98749.31
2022-11-17T18:21:24.000Z,98755.63
2022-11-17T18:23:52.927Z,98752.06
2022-11-17T18:26:25.242Z,98752.94
2022-11-17T18:28:57.040Z,98759.56
2022-11-17T18:31:25.781Z,98738.13
2022-11-17T18:33:53.900Z,98738.97
2022-11-17T18:36:21.845Z,98754.34
2022-11-17T18:38:49.579Z,98756.94
2022-11-17T18:41:18.693Z,98768.63
2022-11-17T18:43:46.165Z,98760.72
2022-11-17T18:46:15.830Z,98765.06
2022-11-17T18:48:43.962Z,98766.69
2022-11-17T18:51:21.435Z,98756.25
2022-11-17T18:53:50.022Z,98768.28
2022-11-17T18:56:20.060Z,98757.72
2022-11-17T18:58:47.259Z,98765.41
2022-11-17T19:01:17.404Z,98770.34
2022-11-17T19:04:12.231Z,98764.63
2022-11-17T19:06:39.470Z,98775.47
2022-11-17T19:09:09.230Z,98771.19
2022-11-17T19:11:36.430Z,98765.13
2022-11-17T19:14:06.685Z,98776.47
2022-11-17T19:16:41.001Z,98763.78
2022-11-17T19:19:13.216Z,98772.41
2022-11-17T19:21:40.634Z,98781.00
2022-11-17T19:24:07.774Z,98784.31
2022-11-17T19:26:35.975Z,98783.38
2022-11-17T19:29:15.632Z,98779.91
2022-11-17T19:31:43.719Z,98785.16
2022-11-17T19:34:10.686Z,98802.66
2022-11-17T19:36:37.934Z,98792.09
2022-11-17T19:39:05.226Z,98793.34
2022-11-17T19:41:36.769Z,98788.91
2022-11-17T19:44:06.541Z,98797.22
2022-11-17T19:46:34.288Z,98802.50
2022-11-17T19:49:00.861Z,98800.63
2022-11-17T19:51:29.469Z,98809.28
2022-11-17T19:54:00.665Z,98811.09
2022-11-17T19:56:27.895Z,98808.69
2022-11-17T19:58:55.640Z,98803.59
2022-11-17T20:01:25.536Z,98819.13
2022-11-17T20:03:52.280Z,98819.06
2022-11-17T20:06:22.851Z,98805.34
2022-11-17T20:08:53.008Z,98823.47
2022-11-17T20:11:24.895Z,98809.66
2022-11-17T20:13:51.561Z,98819.88
2022-11-17T20:16:20.437Z,98817.34
2022-11-17T20:18:52.575Z,98824.28
2022-11-17T20:21:19.535Z,98815.13
2022-11-17T20:23:46.832Z,98832.97
2022-11-17T20:26:16.764Z,98838.25
2022-11-17T20:28:43.458Z,98843.59
2022-11-17T20:31:14.718Z,98848.81
2022-11-17T20:33:42.798Z,98849.72
2022-11-17T20:36:12.995Z,98845.38
2022-11-17T20:38:39.840Z,98842.78
2022-11-17T20:41:07.192Z,98829.91
2022-11-17T20:43:35.550Z,98863.56
2022-11-17T20:46:07.267Z,98856.47
2022-11-17T20:48:36.053Z,98852.94
2022-11-17T20:51:06.105Z,98867.72
2022-11-17T20:53:33.604Z,98865.13
2022-11-17T20:56:02.416Z,98872.25
2022-11-17T20:58:32.196Z,98870.84
2022-11-17T21:01:05.825Z,98877.69
2022-11-17T21:03:32.560Z,98863.72
2022-11-17T21:06:02.135Z,98882.41
2022-11-17T21:08:34.464Z,98888.81
2022-11-17T21:11:06.088Z,98902.47
2022-11-17T21:13:34.463Z,98902.44
2022-11-17T21:16:08.755Z,98891.78
2022-11-17T21:18:36.933Z,98902.00
2022-11-17T21:21:09.133Z,98904.56
2022-11-17T21:23:37.624Z,98893.19
2022-11-17T21:26:09.175Z,98909.44
2022-11-17T21:28:37.235Z,98912.00
2022-11-17T21:31:18.463Z,98916.41
2022-11-17T21:33:45.614Z,98918.22
2022-11-17T21:36:15.431Z,98914.78
2022-11-17T21:38:43.192Z,98907.72
2022-11-17T21:41:16.445Z,98921.63
2022-11-17T21:43:45.351Z,98920.88
2022-11-17T21:46:17.787Z,98932.44
2022-11-17T21:48:45.231Z,98925.41
2022-11-17T21:51:28.111Z,98930.41
2022-11-17T21:53:56.364Z,98935.94
2022-11-17T21:56:26.533Z,98926.53
2022-11-17T21:58:55.242Z,98936.03
2022-11-17T22:01:22.254Z,98936.09
2022-11-17T22:03:49.242Z,98952.34
2022-11-17T22:06:18.519Z,98953.19
2022-11-17T22:08:47.303Z,98959.41
2022-11-17T22:11:16.680Z,98951.47
2022-11-17T22:13:43.380Z,98950.00
2022-11-17T22:16:12.747Z,98949.38
2022-11-17T22:18:44.456Z,98948.38
2022-11-17T22:21:11.087Z,98932.84
2022-11-17T22:23:37.630Z,98955.22
2022-11-17T22:26:06.505Z,98952.59
2022-11-17T22:28:33.664Z,98956.94
2022-11-17T22:31:05.259Z,98958.66
2022-11-17T22:33:31.922Z,98957.81
2022-11-17T22:36:00.168Z,98953.53
2022-11-17T22:38:29.293Z,98951.88
2022-11-17T22:41:04.225Z,98969.13
2022-11-17T22:43:31.375Z,98957.00
2022-11-17T22:46:01.476Z,98963.94
2022-11-17T22:48:28.164Z,98963.97
2022-11-17T22:50:58.435Z,98964.09
2022-11-17T22:53:26.030Z,98979.56
2022-11-17T22:55:53.013Z,98971.88
2022-11-17T22:58:19.823Z,98977.00
2022-11-17T23:00:47.358Z,98979.75
2022-11-17T23:03:14.024Z,98978.13
2022-11-17T23:05:40.765Z,98984.22
2022-11-17T23:08:09.876Z,98971.25
2022-11-17T23:10:37.434Z,98979.09
2022-11-17T23:13:04.229Z,98984.13
2022-11-17T23:15:32.382Z,98986.69
2022-11-17T23:17:59.202Z,98982.44
2022-11-17T23:20:25.779Z,98997.19
2022-11-17T23:22:54.105Z,98991.94
2022-11-17T23:25:21.177Z,99000.63
2022-11-17T23:27:48.053Z,99002.38
2022-11-17T23:30:14.657Z,99003.31
2022-11-17T23:32:41.321Z,99003.31
2022-11-17T23:35:08.535Z,98998.88
2022-11-17T23:37:35.414Z,99001.47
2022-11-17T23:40:02.218Z,99008.38
2022-11-17T23:42:32.479Z,99010.94
2022-11-17T23:44:59.570Z,99011.81
2022-11-17T23:47:26.180Z,99019.63
2022-11-17T23:49:52.779Z,99026.50
2022-11-17T23:52:19.407Z,99017.84
2022-11-17T23:54:45.982Z,99020.53
2022-11-17T23:57:12.600Z,99018.00
2022-11-17T23:59:39.263Z,99024.06
